الصفحة الرئيسية
METAR-TAF:

METAR-TAF

مطار :

مطار ديوري حماني

نيامي, النيجر

دائرة عرض: 13-29N, خط طول: 002-10E, ارتفاع: 223 متر

مراقبة الطقس الحالي

تاريخ ووقت الإصدار 25 دقيقة قبل الساعة 03:00UTC
ريح 4 عقدة من الغرب
درجة الحرارة 30°درجة مئوية
الرطوبة 55%
ضغط 1009 hPa
الرؤية 10 كم أو أكثر
الغيوم لا تقل 1500 م ولا وجود لمزنة ركامية السحاب الأسود

METAR: DRRN 230300Z 27004KT CAVOK 30/20 Q1009 NOSIG

زمن: 04:25 (03:25 UTC)

توقعات

تاريخ ووقت الإصدار 4ساعات و 25 دقيقة قبل الساعة 23:00UTC
التوقعات صالحة من23 الساعة 00 UTC إلى 24 الساعة 06 UTC
ريح 10 عقدة من الجنوب/الجنوب الغربي
الرؤية 10 كم أو أكثر
غيوم قليلة على ارتفاع 3300 قدم
نظرية الاحتمالات 40% :
مؤقت
من 23 الساعة 14 UTC إلى 23 الساعة 19 UTC
الرؤية: 4000 متر
غيوم متفرقة على ارتفاع 4000 قدم, مزنة ركامية.
غيوم قليلة على ارتفاع 4500 قدم, مزنة ركامية.

TAF: DRRN 222300Z 2300/2406 20010KT 9999 FEW033 PROB40 TEMPO 2314/2319 4000 TSSHRA SCT040CB FEW045CB

أرصاد الطقس والتوقعات من أكثر من 4000 مطار (تقارير الطقس للمطار METAR والتنبؤ بالطقس بالمطارTAF).

المحطات المتاحة هي النقط الصفراء والحمراء على الخريطة.

حرك المؤشر فوق النقطة لمعرفة اسم المحطة.

ثم انقر لمعرفة أرصاد وتوقعات الطقس.

لتغيير الخارطة: اضغط على الأزرار الخضراء مع رمز الصليب الأسود للتكبير. على الزر الأخضر مع شرطة للتصغير، أو على الأسهم الخضراء للخرائط المجاورة.


METAR-TAF: